Time;durP1;ratioP1;P1;durP2;ratioP2;P2;SDS_P1;SDS_P2;PMS_P1;PMS_P2;Temp;Humidity;BMP_temperature;BMP_pressure;BME280_temperature;BME280_humidity;BME280_pressure;Samples;Min_cycle;Max_cycle;Signal;HPM_P1;HPM_P2
2023/12/17 00:02:39;;;;;;;22.80;10.82;;;;;;;;;;6244972;28;20049;-64
2023/12/17 00:05:40;;;;;;;23.27;11.05;;;;;;;;;;6246555;28;20132;-63
2023/12/17 00:08:41;;;;;;;26.85;11.02;;;;;;;;;;6242949;28;20071;-63
2023/12/17 00:11:42;;;;;;;28.08;11.45;;;;;;;;;;6262483;28;20573;-61
2023/12/17 00:14:42;;;;;;;26.45;11.88;;;;;;;;;;6261287;28;20412;-62
2023/12/17 00:17:43;;;;;;;26.48;11.02;;;;;;;;;;6265027;28;20059;-63
2023/12/17 00:20:44;;;;;;;27.83;11.45;;;;;;;;;;6262085;28;20515;-63
2023/12/17 00:23:44;;;;;;;26.48;11.55;;;;;;;;;;6264770;28;20060;-63
2023/12/17 00:26:45;;;;;;;26.52;11.00;;;;;;;;;;6264843;28;20473;-63
2023/12/17 00:29:46;;;;;;;27.67;11.43;;;;;;;;;;6264047;28;20408;-64
2023/12/17 00:32:46;;;;;;;28.48;11.73;;;;;;;;;;6263986;28;20056;-62
2023/12/17 00:35:47;;;;;;;25.00;11.55;;;;;;;;;;6264084;28;20044;-64
2023/12/17 00:38:48;;;;;;;27.98;12.70;;;;;;;;;;6265463;28;20052;-64
2023/12/17 00:41:49;;;;;;;25.00;11.27;;;;;;;;;;6262197;28;20043;-64
2023/12/17 00:44:49;;;;;;;23.95;11.07;;;;;;;;;;6263598;28;20404;-64
2023/12/17 00:47:50;;;;;;;26.27;10.65;;;;;;;;;;6263263;28;20051;-63
2023/12/17 00:50:51;;;;;;;22.80;10.90;;;;;;;;;;6261579;28;20052;-64
2023/12/17 00:53:52;;;;;;;28.20;11.68;;;;;;;;;;6265036;28;20077;-64
2023/12/17 00:56:52;;;;;;;29.63;10.85;;;;;;;;;;6262565;28;20491;-64
2023/12/17 00:59:53;;;;;;;24.00;10.23;;;;;;;;;;6250908;28;20041;-64
2023/12/17 01:02:53;;;;;;;29.95;11.02;;;;;;;;;;6260711;28;20041;-63
2023/12/17 01:05:54;;;;;;;25.65;10.93;;;;;;;;;;6257387;28;20045;-64
2023/12/17 01:08:55;;;;;;;25.20;10.90;;;;;;;;;;6262899;28;20041;-64
2023/12/17 01:11:57;;;;;;;25.00;11.63;;;;;;;;;;6262180;28;20143;-63
2023/12/17 01:14:58;;;;;;;25.27;11.68;;;;;;;;;;6264497;28;20053;-63
2023/12/17 01:17:58;;;;;;;24.00;10.75;;;;;;;;;;6260076;28;20464;-63
2023/12/17 01:21:00;;;;;;;30.23;12.48;;;;;;;;;;6266057;28;20064;-63
2023/12/17 01:24:01;;;;;;;21.60;10.73;;;;;;;;;;6267325;28;20489;-63
2023/12/17 01:27:02;;;;;;;28.83;11.23;;;;;;;;;;6263837;28;20049;-63
2023/12/17 01:30:03;;;;;;;24.10;11.00;;;;;;;;;;6266932;28;20407;-62
2023/12/17 01:33:04;;;;;;;23.33;12.00;;;;;;;;;;6266902;28;20048;-64
2023/12/17 01:36:05;;;;;;;27.35;11.57;;;;;;;;;;6267245;28;20049;-62
2023/12/17 01:39:06;;;;;;;29.67;11.57;;;;;;;;;;6267636;28;20045;-64
2023/12/17 01:42:07;;;;;;;27.00;11.38;;;;;;;;;;6263717;28;20454;-64
2023/12/17 01:45:07;;;;;;;26.85;11.38;;;;;;;;;;6267791;28;20080;-63
2023/12/17 01:48:08;;;;;;;22.65;10.35;;;;;;;;;;6267780;28;20095;-63
2023/12/17 01:51:09;;;;;;;28.17;11.05;;;;;;;;;;6266525;28;20090;-64
2023/12/17 01:54:10;;;;;;;27.33;11.43;;;;;;;;;;6267782;28;20037;-64
2023/12/17 01:57:12;;;;;;;27.88;11.57;;;;;;;;;;6265573;28;20056;-64
2023/12/17 02:00:13;;;;;;;27.58;11.82;;;;;;;;;;6265609;28;20040;-64
2023/12/17 02:03:14;;;;;;;27.65;12.43;;;;;;;;;;6267233;28;20067;-63
2023/12/17 02:06:15;;;;;;;25.02;10.90;;;;;;;;;;6267370;28;20045;-64
2023/12/17 02:09:15;;;;;;;27.95;10.90;;;;;;;;;;6267521;28;20055;-64
2023/12/17 02:12:24;;;;;;;28.50;12.13;;;;;;;;;;6265230;28;20076;-63
2023/12/17 02:15:24;;;;;;;25.38;10.90;;;;;;;;;;6266537;28;20053;-63
2023/12/17 02:18:25;;;;;;;22.45;10.40;;;;;;;;;;6267162;28;20472;-63
2023/12/17 02:21:26;;;;;;;23.77;10.57;;;;;;;;;;6264128;28;20048;-64
2023/12/17 02:24:27;;;;;;;25.15;11.48;;;;;;;;;;6266138;28;20484;-63
2023/12/17 02:27:27;;;;;;;27.05;11.52;;;;;;;;;;6266650;28;20041;-63
2023/12/17 02:30:28;;;;;;;26.65;12.20;;;;;;;;;;6264695;28;20139;-63
2023/12/17 02:33:29;;;;;;;28.67;12.65;;;;;;;;;;6265277;28;20497;-63
2023/12/17 02:36:30;;;;;;;26.40;11.68;;;;;;;;;;6267642;28;20049;-63
2023/12/17 02:39:30;;;;;;;26.77;11.75;;;;;;;;;;6266613;28;20049;-64
2023/12/17 02:42:31;;;;;;;28.88;12.70;;;;;;;;;;6263801;28;20451;-63
2023/12/17 02:45:32;;;;;;;27.63;12.18;;;;;;;;;;6266963;28;20396;-63
2023/12/17 02:48:33;;;;;;;33.00;12.57;;;;;;;;;;6257601;28;20080;-64
2023/12/17 02:51:33;;;;;;;24.38;11.80;;;;;;;;;;6256327;28;20053;-63
2023/12/17 02:54:35;;;;;;;29.77;12.00;;;;;;;;;;6261876;28;20064;-63
2023/12/17 02:57:36;;;;;;;30.10;11.17;;;;;;;;;;6266275;28;20079;-63
2023/12/17 03:00:36;;;;;;;28.80;12.02;;;;;;;;;;6265231;28;20083;-63
2023/12/17 03:03:37;;;;;;;27.92;11.85;;;;;;;;;;6265808;28;20052;-63
2023/12/17 03:06:38;;;;;;;31.23;12.00;;;;;;;;;;6266360;28;20049;-63
2023/12/17 03:09:39;;;;;;;29.40;11.65;;;;;;;;;;6265251;28;20052;-63
2023/12/17 03:12:40;;;;;;;27.63;12.38;;;;;;;;;;6264392;28;20049;-63
2023/12/17 03:15:40;;;;;;;24.92;11.50;;;;;;;;;;6265507;28;20060;-63
2023/12/17 03:18:41;;;;;;;29.05;11.40;;;;;;;;;;6266394;28;20052;-64
2023/12/17 03:21:42;;;;;;;31.20;11.95;;;;;;;;;;6264332;28;20041;-64
2023/12/17 03:24:42;;;;;;;28.65;11.05;;;;;;;;;;6265748;28;20405;-62
2023/12/17 03:27:43;;;;;;;25.83;11.10;;;;;;;;;;6265989;28;20059;-64
2023/12/17 03:30:44;;;;;;;27.15;12.27;;;;;;;;;;6264204;28;20060;-63
2023/12/17 03:33:45;;;;;;;27.85;11.45;;;;;;;;;;6265581;28;20046;-63
2023/12/17 03:36:46;;;;;;;27.08;11.35;;;;;;;;;;6266601;28;20144;-64
2023/12/17 03:39:48;;;;;;;25.45;10.85;;;;;;;;;;6265255;28;20052;-64
2023/12/17 03:42:49;;;;;;;23.35;10.82;;;;;;;;;;6264801;28;20045;-64
2023/12/17 03:45:50;;;;;;;28.73;11.55;;;;;;;;;;6265599;28;20045;-63
2023/12/17 03:48:51;;;;;;;26.00;11.18;;;;;;;;;;6264995;28;20052;-63
2023/12/17 03:51:52;;;;;;;23.40;11.25;;;;;;;;;;6261347;28;20492;-62
2023/12/17 03:54:52;;;;;;;26.85;10.73;;;;;;;;;;6264160;28;20045;-62
2023/12/17 03:57:53;;;;;;;22.80;11.13;;;;;;;;;;6264390;28;20139;-62
2023/12/17 04:00:54;;;;;;;25.00;10.77;;;;;;;;;;6263145;28;20045;-62
2023/12/17 04:03:54;;;;;;;26.38;11.65;;;;;;;;;;6264753;28;20044;-64
2023/12/17 04:06:55;;;;;;;31.83;12.40;;;;;;;;;;6265226;28;20095;-64
2023/12/17 04:09:57;;;;;;;27.95;11.27;;;;;;;;;;6264470;28;20526;-64
2023/12/17 04:12:57;;;;;;;24.80;11.07;;;;;;;;;;6265859;28;20033;-64
2023/12/17 04:15:58;;;;;;;25.02;10.73;;;;;;;;;;6263149;28;20088;-64
2023/12/17 04:18:59;;;;;;;29.60;11.60;;;;;;;;;;6264262;28;20048;-62
2023/12/17 04:21:59;;;;;;;25.30;10.75;;;;;;;;;;6263271;28;20045;-63
2023/12/17 04:25:00;;;;;;;30.10;10.23;;;;;;;;;;6260693;28;20468;-64
2023/12/17 04:28:01;;;;;;;21.85;11.02;;;;;;;;;;6263710;28;20043;-64
2023/12/17 04:31:02;;;;;;;25.90;10.25;;;;;;;;;;6262010;28;20131;-62
2023/12/17 04:34:02;;;;;;;26.08;10.52;;;;;;;;;;6263320;28;20464;-64
2023/12/17 04:37:03;;;;;;;25.70;9.88;;;;;;;;;;6264205;28;20041;-64
2023/12/17 04:40:04;;;;;;;25.08;9.27;;;;;;;;;;6263268;28;20037;-63
2023/12/17 04:43:05;;;;;;;22.17;9.50;;;;;;;;;;6264051;28;20045;-64
2023/12/17 04:46:06;;;;;;;21.38;8.63;;;;;;;;;;6265038;28;20075;-63
2023/12/17 04:49:07;;;;;;;21.10;8.90;;;;;;;;;;6262891;28;20403;-64
2023/12/17 04:52:07;;;;;;;22.40;9.00;;;;;;;;;;6266926;28;20037;-63
2023/12/17 04:55:08;;;;;;;20.50;8.88;;;;;;;;;;6269272;28;20079;-62
2023/12/17 04:58:09;;;;;;;22.08;9.10;;;;;;;;;;6268206;28;20403;-63
2023/12/17 05:01:10;;;;;;;20.50;9.27;;;;;;;;;;6265376;28;20055;-64
2023/12/17 05:04:11;;;;;;;21.45;9.02;;;;;;;;;;6268508;28;20045;-63
2023/12/17 05:07:12;;;;;;;20.60;8.02;;;;;;;;;;6270811;28;20044;-62
2023/12/17 05:10:12;;;;;;;17.88;8.73;;;;;;;;;;6266956;28;20049;-63
2023/12/17 05:13:13;;;;;;;20.55;8.95;;;;;;;;;;6269677;28;20056;-63
2023/12/17 05:16:14;;;;;;;18.65;9.00;;;;;;;;;;6269200;28;20542;-63
2023/12/17 05:19:14;;;;;;;19.15;8.35;;;;;;;;;;6269296;28;20136;-63
2023/12/17 05:22:15;;;;;;;21.42;9.02;;;;;;;;;;6265954;28;20071;-63
2023/12/17 05:25:16;;;;;;;19.60;9.05;;;;;;;;;;6269518;28;20091;-63
2023/12/17 05:28:16;;;;;;;20.02;8.60;;;;;;;;;;6269268;28;20057;-62
2023/12/17 05:31:18;;;;;;;19.83;9.05;;;;;;;;;;6267158;28;20822;-63
2023/12/17 05:34:18;;;;;;;20.52;8.73;;;;;;;;;;6269332;28;20048;-63
2023/12/17 05:37:19;;;;;;;23.13;9.32;;;;;;;;;;6268315;28;20073;-64
2023/12/17 05:40:20;;;;;;;23.17;9.60;;;;;;;;;;6267646;28;20048;-63
2023/12/17 05:43:21;;;;;;;20.58;9.00;;;;;;;;;;6267675;28;20043;-64
2023/12/17 05:46:21;;;;;;;23.20;9.50;;;;;;;;;;6268685;28;20053;-63
2023/12/17 05:49:22;;;;;;;20.30;8.77;;;;;;;;;;6267336;28;20400;-64
2023/12/17 05:52:23;;;;;;;22.38;9.57;;;;;;;;;;6266293;28;20388;-63
2023/12/17 05:55:23;;;;;;;19.75;8.88;;;;;;;;;;6265723;28;20044;-64
2023/12/17 05:58:24;;;;;;;22.10;8.90;;;;;;;;;;6266377;28;20057;-63
2023/12/17 06:01:25;;;;;;;22.63;9.82;;;;;;;;;;6265586;28;20322;-63
2023/12/17 06:04:25;;;;;;;24.40;9.88;;;;;;;;;;6267870;28;20037;-63
2023/12/17 06:07:26;;;;;;;18.88;8.50;;;;;;;;;;6267863;28;20048;-63
2023/12/17 06:10:27;;;;;;;21.27;9.18;;;;;;;;;;6266579;28;20044;-63
2023/12/17 06:13:28;;;;;;;23.63;9.95;;;;;;;;;;6266673;28;20136;-63
2023/12/17 06:16:28;;;;;;;20.90;8.38;;;;;;;;;;6268022;28;20037;-64
2023/12/17 06:19:29;;;;;;;25.77;9.95;;;;;;;;;;6267089;28;20242;-63
2023/12/17 06:22:32;;;;;;;24.13;9.90;;;;;;;;;;6264936;28;20078;-63
2023/12/17 06:25:34;;;;;;;23.98;9.85;;;;;;;;;;6267941;28;20063;-63
2023/12/17 06:28:35;;;;;;;23.33;10.45;;;;;;;;;;6266466;28;20083;-63
2023/12/17 06:31:36;;;;;;;23.77;9.20;;;;;;;;;;6264651;28;20454;-63
2023/12/17 06:34:36;;;;;;;26.48;10.02;;;;;;;;;;6264219;28;20072;-63
2023/12/17 06:37:37;;;;;;;19.48;9.80;;;;;;;;;;6261456;28;20052;-63
2023/12/17 06:40:37;;;;;;;23.45;10.30;;;;;;;;;;6266279;28;20566;-63
2023/12/17 06:43:42;;;;;;;23.02;9.48;;;;;;;;;;6266027;28;20048;-63
2023/12/17 06:46:42;;;;;;;23.98;10.38;;;;;;;;;;6266139;28;20052;-64
2023/12/17 06:49:44;;;;;;;21.50;9.75;;;;;;;;;;6265854;28;20052;-63
2023/12/17 06:52:45;;;;;;;23.95;10.50;;;;;;;;;;6264713;28;20103;-63
2023/12/17 06:55:46;;;;;;;24.15;11.25;;;;;;;;;;6267193;28;20483;-63
2023/12/17 06:58:46;;;;;;;25.05;9.40;;;;;;;;;;6266458;28;20541;-63
2023/12/17 07:01:47;;;;;;;21.30;9.73;;;;;;;;;;6264182;28;20088;-63
2023/12/17 07:04:48;;;;;;;26.95;10.57;;;;;;;;;;6266744;28;20492;-64
2023/12/17 07:07:49;;;;;;;25.50;9.55;;;;;;;;;;6267390;28;20140;-63
2023/12/17 07:10:50;;;;;;;26.08;9.55;;;;;;;;;;6265385;28;20053;-64
2023/12/17 07:13:50;;;;;;;26.70;9.75;;;;;;;;;;6264905;28;20095;-63
2023/12/17 07:16:51;;;;;;;20.88;9.75;;;;;;;;;;6261714;28;20045;-63
2023/12/17 07:19:52;;;;;;;21.00;9.57;;;;;;;;;;6268132;28;20053;-64
2023/12/17 07:22:53;;;;;;;22.98;9.18;;;;;;;;;;6265920;28;20051;-63
2023/12/17 07:25:55;;;;;;;23.83;9.93;;;;;;;;;;6266117;28;20140;-63
2023/12/17 07:28:56;;;;;;;23.23;10.02;;;;;;;;;;6264372;28;20128;-63
2023/12/17 07:31:57;;;;;;;21.98;9.68;;;;;;;;;;6263489;28;20480;-64
2023/12/17 07:34:58;;;;;;;24.40;9.48;;;;;;;;;;6263342;28;20122;-64
2023/12/17 07:37:58;;;;;;;24.67;10.32;;;;;;;;;;6265698;28;20128;-63
2023/12/17 07:40:59;;;;;;;22.00;9.88;;;;;;;;;;6264115;28;20817;-63
2023/12/17 07:44:00;;;;;;;22.95;10.20;;;;;;;;;;6265781;28;20351;-63
2023/12/17 07:47:00;;;;;;;20.90;9.85;;;;;;;;;;6263958;28;20051;-63
2023/12/17 07:50:01;;;;;;;20.88;9.65;;;;;;;;;;6256879;28;20073;-63
2023/12/17 07:53:03;;;;;;;21.17;8.77;;;;;;;;;;6260510;28;20059;-64
2023/12/17 07:56:06;;;;;;;20.15;9.90;;;;;;;;;;6253972;28;20427;-64
2023/12/17 07:59:07;;;;;;;19.65;10.20;;;;;;;;;;6262831;28;20132;-64
2023/12/17 08:02:08;;;;;;;21.42;9.38;;;;;;;;;;6261292;28;20456;-64
2023/12/17 08:05:08;;;;;;;20.80;9.48;;;;;;;;;;6261606;28;20037;-63
2023/12/17 08:08:09;;;;;;;20.80;10.40;;;;;;;;;;6257859;28;20049;-64
2023/12/17 08:11:13;;;;;;;21.70;9.20;;;;;;;;;;6263013;28;20392;-64
2023/12/17 08:14:14;;;;;;;21.90;10.48;;;;;;;;;;6256055;28;20053;-63
2023/12/17 08:17:14;;;;;;;25.13;10.35;;;;;;;;;;6263031;28;20419;-63
2023/12/17 08:20:15;;;;;;;16.88;8.43;;;;;;;;;;6262453;28;20048;-62
2023/12/17 08:23:16;;;;;;;19.85;9.20;;;;;;;;;;6257502;28;20056;-63
2023/12/17 08:26:17;;;;;;;21.13;10.90;;;;;;;;;;6261798;28;20057;-64
2023/12/17 08:29:17;;;;;;;22.25;9.27;;;;;;;;;;6266196;28;20099;-63
2023/12/17 08:32:21;;;;;;;21.70;9.98;;;;;;;;;;6263789;28;20502;-62
2023/12/17 08:35:22;;;;;;;22.38;10.23;;;;;;;;;;6268869;28;20045;-62
2023/12/17 08:38:23;;;;;;;24.35;9.82;;;;;;;;;;6266753;28;20045;-64
2023/12/17 08:41:23;;;;;;;21.88;10.13;;;;;;;;;;6264846;28;20044;-63
2023/12/17 08:44:25;;;;;;;21.25;9.75;;;;;;;;;;6265994;28;20060;-63
2023/12/17 08:47:26;;;;;;;20.93;9.83;;;;;;;;;;6263326;28;20454;-63
2023/12/17 08:50:27;;;;;;;22.98;10.27;;;;;;;;;;6267357;28;20141;-64
2023/12/17 08:53:28;;;;;;;24.80;10.25;;;;;;;;;;6259954;28;20931;-63
2023/12/17 08:56:29;;;;;;;22.40;10.50;;;;;;;;;;6266713;28;20037;-62
2023/12/17 08:59:30;;;;;;;25.58;12.10;;;;;;;;;;6265940;28;20128;-64
2023/12/17 09:02:31;;;;;;;23.45;10.90;;;;;;;;;;6265422;28;20526;-64
2023/12/17 09:05:32;;;;;;;21.90;11.05;;;;;;;;;;6267827;28;20053;-64
2023/12/17 09:08:33;;;;;;;24.70;11.82;;;;;;;;;;6262306;28;20052;-63
2023/12/17 09:11:34;;;;;;;25.58;11.25;;;;;;;;;;6262814;28;20052;-64
2023/12/17 09:14:36;;;;;;;24.13;11.63;;;;;;;;;;6258824;28;20136;-63
2023/12/17 09:17:36;;;;;;;27.85;13.15;;;;;;;;;;6258681;28;20053;-64
2023/12/17 09:20:38;;;;;;;24.33;11.90;;;;;;;;;;6268012;28;20192;-64
2023/12/17 09:23:39;;;;;;;23.92;11.40;;;;;;;;;;6268451;28;20563;-63
2023/12/17 09:26:39;;;;;;;24.08;11.55;;;;;;;;;;6270022;28;20049;-62
2023/12/17 09:29:40;;;;;;;23.65;11.10;;;;;;;;;;6270172;28;20151;-62
2023/12/17 09:32:44;;;;;;;23.50;10.93;;;;;;;;;;6268643;28;20045;-63
2023/12/17 09:35:44;;;;;;;24.80;11.73;;;;;;;;;;6269203;28;20163;-63
2023/12/17 09:38:45;;;;;;;27.15;11.05;;;;;;;;;;6269060;28;20056;-63
2023/12/17 09:41:46;;;;;;;22.20;10.23;;;;;;;;;;6267634;28;20049;-62
2023/12/17 09:44:47;;;;;;;24.23;10.90;;;;;;;;;;6269762;28;20057;-63
2023/12/17 09:47:48;;;;;;;22.40;10.30;;;;;;;;;;6269762;28;20055;-64
2023/12/17 09:50:49;;;;;;;24.50;11.40;;;;;;;;;;6268326;28;20063;-62
2023/12/17 09:53:49;;;;;;;23.15;11.18;;;;;;;;;;6268475;28;20462;-62
2023/12/17 09:56:53;;;;;;;25.08;10.73;;;;;;;;;;6268814;28;20049;-63
2023/12/17 09:59:53;;;;;;;21.80;10.60;;;;;;;;;;6266344;28;20076;-64
2023/12/17 10:03:03;;;;;;;27.38;11.27;;;;;;;;;;6258476;28;20478;-62
2023/12/17 10:06:03;;;;;;;25.90;11.75;;;;;;;;;;6253095;28;20049;-64
2023/12/17 10:09:06;;;;;;;24.38;10.63;;;;;;;;;;6264250;28;20103;-65
2023/12/17 10:12:32;;;;;;;27.63;10.98;;;;;;;;;;6266662;28;20049;-64
2023/12/17 10:15:39;;;;;;;26.10;11.35;;;;;;;;;;6265790;28;20543;-63
2023/12/17 10:18:40;;;;;;;23.75;10.85;;;;;;;;;;6265487;28;20507;-62
2023/12/17 10:21:40;;;;;;;23.30;10.77;;;;;;;;;;6266058;28;20060;-64
2023/12/17 10:24:42;;;;;;;24.17;11.18;;;;;;;;;;6263583;28;20049;-63
2023/12/17 10:27:43;;;;;;;;;;;;;;;;;;6267401;28;20172;-62
2023/12/17 10:30:44;;;;;;;24.58;10.25;;;;;;;;;;6265924;28;19924;-68
2023/12/17 10:33:57;;;;;;;23.48;11.45;;;;;;;;;;6257652;28;20041;-62
2023/12/17 10:36:58;;;;;;;25.75;11.13;;;;;;;;;;6254527;28;20053;-69
2023/12/17 10:39:59;;;;;;;25.77;11.30;;;;;;;;;;6253563;28;20052;-62
2023/12/17 10:43:02;;;;;;;25.35;10.77;;;;;;;;;;6266189;28;20045;-65
2023/12/17 10:46:03;;;;;;;22.33;9.93;;;;;;;;;;6243952;28;20049;-62
2023/12/17 10:49:07;;;;;;;23.10;9.73;;;;;;;;;;6257161;28;20622;-63
2023/12/17 10:52:08;;;;;;;23.30;10.07;;;;;;;;;;6255404;28;20055;-61
2023/12/17 10:55:09;;;;;;;24.17;10.60;;;;;;;;;;6250037;28;20045;-64
2023/12/17 10:58:15;;;;;;;22.25;9.98;;;;;;;;;;6260165;28;20049;-64
2023/12/17 11:01:16;;;;;;;24.88;10.02;;;;;;;;;;6260395;28;20164;-63
2023/12/17 11:04:16;;;;;;;28.02;12.05;;;;;;;;;;6259270;28;20048;-61
2023/12/17 11:07:21;;;;;;;23.58;11.25;;;;;;;;;;6248065;28;20041;-62
2023/12/17 11:10:23;;;;;;;24.38;10.65;;;;;;;;;;6261970;28;20086;-64
2023/12/17 11:13:24;;;;;;;26.95;11.80;;;;;;;;;;6260818;28;20518;-63
2023/12/17 11:16:26;;;;;;;21.17;10.50;;;;;;;;;;6259004;28;20049;-62
2023/12/17 11:19:26;;;;;;;26.67;10.98;;;;;;;;;;6266418;28;20053;-64
2023/12/17 11:22:28;;;;;;;21.90;10.75;;;;;;;;;;6265745;28;20114;-64
2023/12/17 11:25:31;;;;;;;25.58;11.02;;;;;;;;;;6264110;28;20040;-65
2023/12/17 11:28:32;;;;;;;26.65;11.38;;;;;;;;;;6262401;28;20821;-64
2023/12/17 11:31:33;;;;;;;23.98;10.02;;;;;;;;;;6252789;28;20095;-66
2023/12/17 11:34:36;;;;;;;22.77;10.80;;;;;;;;;;6262207;28;20136;-67
2023/12/17 11:37:37;;;;;;;23.75;11.82;;;;;;;;;;6239686;28;20049;-64
2023/12/17 11:40:39;;;;;;;24.27;11.00;;;;;;;;;;6242756;28;20060;-65
2023/12/17 11:43:39;;;;;;;;;;;;;;;;;;6259280;28;20057;-62
2023/12/17 11:46:40;;;;;;;22.80;10.93;;;;;;;;;;6244561;28;20035;-64
2023/12/17 11:49:42;;;;;;;25.38;11.18;;;;;;;;;;6239090;28;20057;-64
2023/12/17 11:52:43;;;;;;;;;;;;;;;;;;6242013;28;20048;-64
2023/12/17 11:55:48;;;;;;;26.55;11.82;;;;;;;;;;6242976;28;21193;-65
2023/12/17 11:58:50;;;;;;;24.95;13.13;;;;;;;;;;6236965;28;20537;-64
2023/12/17 12:01:53;;;;;;;24.60;11.27;;;;;;;;;;6246002;28;20049;-65
2023/12/17 12:04:55;;;;;;;33.97;17.05;;;;;;;;;;6241546;28;20056;-63
2023/12/17 12:07:57;;;;;;;;;;;;;;;;;;6241160;28;20045;-63
2023/12/17 12:10:58;;;;;;;25.03;12.63;;;;;;;;;;6242077;28;19930;-63
2023/12/17 12:13:59;;;;;;;22.75;11.02;;;;;;;;;;6243798;28;20053;-63
2023/12/17 12:16:59;;;;;;;24.27;11.10;;;;;;;;;;6238568;28;20442;-63
2023/12/17 12:20:00;;;;;;;22.80;10.50;;;;;;;;;;6240104;28;20061;-62
2023/12/17 12:23:08;;;;;;;23.92;10.45;;;;;;;;;;6242328;28;20064;-64
2023/12/17 12:26:09;;;;;;;21.52;9.93;;;;;;;;;;6244712;28;20041;-64
2023/12/17 12:29:10;;;;;;;24.83;11.43;;;;;;;;;;6240324;28;21522;-65
2023/12/17 12:32:11;;;;;;;22.27;9.85;;;;;;;;;;6240511;28;20053;-62
2023/12/17 12:35:29;;;;;;;26.50;11.52;;;;;;;;;;6247786;28;20163;-63
2023/12/17 12:38:29;;;;;;;84.55;32.33;;;;;;;;;;6240094;28;20187;-62
2023/12/17 12:41:31;;;;;;;43.58;18.45;;;;;;;;;;6237474;28;20567;-63
2023/12/17 12:44:32;;;;;;;24.13;11.35;;;;;;;;;;6241138;28;20053;-65
2023/12/17 12:47:33;;;;;;;23.00;10.90;;;;;;;;;;6240358;28;20625;-63
2023/12/17 12:50:33;;;;;;;23.05;9.77;;;;;;;;;;6240339;28;20079;-67
2023/12/17 12:53:35;;;;;;;23.23;11.32;;;;;;;;;;6240564;28;20076;-64
2023/12/17 12:56:35;;;;;;;22.35;9.85;;;;;;;;;;6238525;28;20099;-61
2023/12/17 12:59:37;;;;;;;21.58;9.95;;;;;;;;;;6243014;28;20045;-61
2023/12/17 13:02:38;;;;;;;21.90;10.13;;;;;;;;;;6243512;28;20084;-61
2023/12/17 13:05:39;;;;;;;23.05;10.63;;;;;;;;;;6241073;28;20124;-60
2023/12/17 13:08:40;;;;;;;22.10;10.15;;;;;;;;;;6237669;28;20423;-64
2023/12/17 13:11:40;;;;;;;24.10;10.55;;;;;;;;;;6243768;28;20052;-64
2023/12/17 13:14:41;;;;;;;19.27;9.70;;;;;;;;;;6241978;28;20049;-63
2023/12/17 13:17:44;;;;;;;31.15;15.98;;;;;;;;;;6243018;28;20077;-65
2023/12/17 13:20:45;;;;;;;25.63;14.00;;;;;;;;;;6243064;28;20615;-65
2023/12/17 13:23:49;;;;;;;31.48;16.98;;;;;;;;;;6248251;28;20045;-62
2023/12/17 13:26:50;;;;;;;30.35;11.82;;;;;;;;;;6245824;28;20049;-65
2023/12/17 13:29:51;;;;;;;22.37;10.57;;;;;;;;;;6239427;28;20580;-65
2023/12/17 13:32:52;;;;;;;22.77;9.70;;;;;;;;;;6243168;28;20045;-63
2023/12/17 13:35:53;;;;;;;21.05;9.98;;;;;;;;;;6243097;28;20045;-64
2023/12/17 13:38:54;;;;;;;27.30;11.02;;;;;;;;;;6240328;28;21398;-60
2023/12/17 13:41:55;;;;;;;21.30;9.27;;;;;;;;;;6245481;28;20061;-63
2023/12/17 13:44:55;;;;;;;21.00;9.88;;;;;;;;;;6243695;28;20045;-66
2023/12/17 13:47:57;;;;;;;22.60;9.93;;;;;;;;;;6242749;28;20053;-64
2023/12/17 13:50:58;;;;;;;23.38;10.18;;;;;;;;;;6247732;28;20044;-61
2023/12/17 13:53:59;;;;;;;27.23;10.82;;;;;;;;;;6247801;28;20558;-64
2023/12/17 13:56:59;;;;;;;23.77;10.82;;;;;;;;;;6245496;28;20037;-62
2023/12/17 14:00:00;;;;;;;27.70;12.70;;;;;;;;;;6243512;28;20044;-64
2023/12/17 14:03:01;;;;;;;32.97;15.23;;;;;;;;;;6244711;28;20041;-64
2023/12/17 14:06:02;;;;;;;31.75;15.48;;;;;;;;;;6243456;28;20797;-64
2023/12/17 14:09:02;;;;;;;27.85;12.25;;;;;;;;;;6241259;28;20056;-65
2023/12/17 14:12:04;;;;;;;22.52;10.90;;;;;;;;;;6242832;28;20110;-64
2023/12/17 14:15:06;;;;;;;25.70;11.30;;;;;;;;;;6243603;28;20065;-64
2023/12/17 14:18:08;;;;;;;23.90;11.25;;;;;;;;;;6236506;28;20072;-68
2023/12/17 14:21:09;;;;;;;26.33;11.32;;;;;;;;;;6240123;28;20045;-62
2023/12/17 14:24:10;;;;;;;26.13;11.65;;;;;;;;;;6245930;28;20053;-64
2023/12/17 14:27:10;;;;;;;25.30;11.98;;;;;;;;;;6242445;28;20102;-67
2023/12/17 14:30:16;;;;;;;23.75;11.23;;;;;;;;;;6239817;28;20056;-63
2023/12/17 14:33:16;;;;;;;31.25;14.18;;;;;;;;;;6243336;28;20083;-62
2023/12/17 14:36:17;;;;;;;27.90;12.80;;;;;;;;;;6242566;28;20049;-66
2023/12/17 14:39:18;;;;;;;24.75;11.63;;;;;;;;;;6241157;28;20037;-65
2023/12/17 14:42:18;;;;;;;27.35;12.55;;;;;;;;;;6240674;28;20143;-63
2023/12/17 14:45:20;;;;;;;91.07;53.00;;;;;;;;;;6242888;28;20408;-67
2023/12/17 14:48:21;;;;;;;69.93;35.28;;;;;;;;;;6237465;28;20041;-60
2023/12/17 14:51:21;;;;;;;51.05;28.73;;;;;;;;;;6241685;28;20954;-65
2023/12/17 14:54:22;;;;;;;31.75;15.18;;;;;;;;;;6244262;28;20044;-65
2023/12/17 14:57:23;;;;;;;31.50;14.18;;;;;;;;;;6242559;28;20059;-63
2023/12/17 15:00:24;;;;;;;28.65;13.15;;;;;;;;;;6257374;28;20453;-63
2023/12/17 15:03:24;;;;;;;26.98;13.13;;;;;;;;;;6244120;28;20049;-66
2023/12/17 15:06:25;;;;;;;28.95;13.05;;;;;;;;;;6241601;28;20084;-64
2023/12/17 15:09:28;;;;;;;31.40;14.57;;;;;;;;;;6238672;28;20068;-65
2023/12/17 15:12:29;;;;;;;35.40;15.07;;;;;;;;;;6239171;28;20493;-63
2023/12/17 15:15:30;;;;;;;31.75;14.30;;;;;;;;;;6242264;28;20041;-64
2023/12/17 15:18:30;;;;;;;35.35;16.48;;;;;;;;;;6239334;28;20095;-65
2023/12/17 15:21:31;;;;;;;28.58;12.98;;;;;;;;;;6244532;28;20038;-65
2023/12/17 15:24:32;;;;;;;24.23;11.82;;;;;;;;;;6243797;28;20076;-67
2023/12/17 15:27:33;;;;;;;30.25;14.18;;;;;;;;;;6241158;28;20056;-66
2023/12/17 15:30:34;;;;;;;27.42;13.02;;;;;;;;;;6240415;28;20049;-67
2023/12/17 15:33:34;;;;;;;29.17;13.60;;;;;;;;;;6243500;28;20060;-67
2023/12/17 15:36:40;;;;;;;28.38;13.27;;;;;;;;;;6243368;28;20056;-66
2023/12/17 15:39:41;;;;;;;26.50;12.18;;;;;;;;;;6237731;28;20045;-68
2023/12/17 15:42:42;;;;;;;46.03;23.35;;;;;;;;;;6242896;28;20049;-67
2023/12/17 15:45:43;;;;;;;32.30;13.57;;;;;;;;;;6242664;28;20487;-60
2023/12/17 15:48:43;;;;;;;38.53;17.58;;;;;;;;;;6238906;28;20420;-67
2023/12/17 15:51:44;;;;;;;35.95;15.75;;;;;;;;;;6239621;28;20484;-66
2023/12/17 15:54:45;;;;;;;31.80;13.45;;;;;;;;;;6241136;28;20143;-66
2023/12/17 15:57:47;;;;;;;28.90;13.05;;;;;;;;;;6238287;28;20057;-65
2023/12/17 16:00:48;;;;;;;30.17;13.52;;;;;;;;;;6242252;28;20049;-67
2023/12/17 16:03:49;;;;;;;55.92;19.50;;;;;;;;;;6240967;28;20056;-67
2023/12/17 16:06:50;;;;;;;43.25;16.38;;;;;;;;;;6240574;28;20534;-73
2023/12/17 16:09:50;;;;;;;45.50;21.05;;;;;;;;;;6240325;28;20053;-66
2023/12/17 16:12:51;;;;;;;73.13;33.83;;;;;;;;;;6242028;28;20683;-69
2023/12/17 16:15:52;;;;;;;41.05;19.10;;;;;;;;;;6255919;28;20049;-67
2023/12/17 16:18:53;;;;;;;23.10;12.52;;;;;;;;;;6238348;28;20433;-67
2023/12/17 16:21:53;;;;;;;27.92;12.32;;;;;;;;;;6242143;28;20057;-65
2023/12/17 16:24:54;;;;;;;29.50;13.63;;;;;;;;;;6244759;28;20576;-66
2023/12/17 16:27:55;;;;;;;35.28;16.83;;;;;;;;;;6240694;28;20041;-67
2023/12/17 16:30:56;;;;;;;30.38;15.07;;;;;;;;;;6238619;28;20088;-62
2023/12/17 16:33:56;;;;;;;31.52;14.43;;;;;;;;;;6240127;28;20495;-64
2023/12/17 16:36:57;;;;;;;30.17;12.07;;;;;;;;;;6240090;28;20176;-64
2023/12/17 16:39:59;;;;;;;24.70;12.40;;;;;;;;;;6235891;28;20064;-63
2023/12/17 16:43:04;;;;;;;24.83;11.35;;;;;;;;;;6243135;28;21146;-63
2023/12/17 16:46:05;;;;;;;42.05;20.17;;;;;;;;;;6238624;28;20471;-64
2023/12/17 16:49:06;;;;;;;25.42;11.82;;;;;;;;;;6244532;28;20063;-64
2023/12/17 16:52:07;;;;;;;35.05;16.38;;;;;;;;;;6248010;28;20083;-64
2023/12/17 16:55:08;;;;;;;30.05;13.18;;;;;;;;;;6244597;28;20163;-69
2023/12/17 16:58:08;;;;;;;26.80;13.15;;;;;;;;;;6243803;28;20057;-62
2023/12/17 17:01:09;;;;;;;26.08;11.68;;;;;;;;;;6244414;28;20514;-66
2023/12/17 17:04:10;;;;;;;25.17;11.98;;;;;;;;;;6241927;28;20049;-66
2023/12/17 17:07:13;;;;;;;28.02;12.18;;;;;;;;;;6243726;28;20061;-65
2023/12/17 17:10:14;;;;;;;30.05;11.75;;;;;;;;;;6241991;28;20139;-64
2023/12/17 17:13:14;;;;;;;26.23;11.95;;;;;;;;;;6245633;28;20087;-67
2023/12/17 17:16:15;;;;;;;28.15;14.45;;;;;;;;;;6245478;28;20049;-65
2023/12/17 17:19:16;;;;;;;28.50;13.85;;;;;;;;;;6238326;28;20069;-62
2023/12/17 17:22:17;;;;;;;25.00;11.30;;;;;;;;;;6245792;28;20077;-64
2023/12/17 17:25:17;;;;;;;28.17;11.38;;;;;;;;;;6247555;28;20083;-66
2023/12/17 17:28:18;;;;;;;29.48;12.82;;;;;;;;;;6240572;28;20037;-66
2023/12/17 17:31:19;;;;;;;22.80;11.23;;;;;;;;;;6241535;28;20049;-63
2023/12/17 17:34:20;;;;;;;27.60;12.57;;;;;;;;;;6243516;28;20052;-65
2023/12/17 17:37:20;;;;;;;29.13;12.05;;;;;;;;;;6242979;28;20053;-63
2023/12/17 17:40:24;;;;;;;25.98;11.90;;;;;;;;;;6245204;28;20052;-64